sensor_id;sensor_type;location;lat;lon;timestamp;P1;durP1;ratioP1;P2;durP2;ratioP2
58242;SDS011;50118;53.232;8.252;2023-11-22T00:01:50;14.65;;;7.10;;
58242;SDS011;50118;53.232;8.252;2023-11-22T00:04:15;12.00;;;5.68;;
58242;SDS011;50118;53.232;8.252;2023-11-22T00:06:42;11.88;;;6.03;;
58242;SDS011;50118;53.232;8.252;2023-11-22T00:09:08;13.15;;;5.78;;
58242;SDS011;50118;53.232;8.252;2023-11-22T00:11:33;10.52;;;4.95;;
58242;SDS011;50118;53.232;8.252;2023-11-22T00:13:59;11.68;;;5.60;;
58242;SDS011;50118;53.232;8.252;2023-11-22T00:16:25;13.52;;;5.82;;
58242;SDS011;50118;53.232;8.252;2023-11-22T00:18:50;11.90;;;5.53;;
58242;SDS011;50118;53.232;8.252;2023-11-22T00:21:15;13.40;;;6.28;;
58242;SDS011;50118;53.232;8.252;2023-11-22T00:23:41;11.18;;;5.53;;
58242;SDS011;50118;53.232;8.252;2023-11-22T00:26:06;11.48;;;5.78;;
58242;SDS011;50118;53.232;8.252;2023-11-22T00:28:32;13.80;;;6.03;;
58242;SDS011;50118;53.232;8.252;2023-11-22T00:31:01;11.93;;;5.53;;
58242;SDS011;50118;53.232;8.252;2023-11-22T00:33:26;12.25;;;5.43;;
58242;SDS011;50118;53.232;8.252;2023-11-22T00:35:51;11.35;;;5.70;;
58242;SDS011;50118;53.232;8.252;2023-11-22T00:38:18;13.23;;;5.80;;
58242;SDS011;50118;53.232;8.252;2023-11-22T00:40:44;11.55;;;5.63;;
58242;SDS011;50118;53.232;8.252;2023-11-22T00:43:09;12.57;;;5.85;;
58242;SDS011;50118;53.232;8.252;2023-11-22T00:45:35;12.68;;;5.57;;
58242;SDS011;50118;53.232;8.252;2023-11-22T00:48:00;11.82;;;5.90;;
58242;SDS011;50118;53.232;8.252;2023-11-22T00:50:27;13.65;;;5.65;;
58242;SDS011;50118;53.232;8.252;2023-11-22T00:52:52;10.23;;;5.10;;
58242;SDS011;50118;53.232;8.252;2023-11-22T00:55:18;12.40;;;5.05;;
58242;SDS011;50118;53.232;8.252;2023-11-22T00:57:44;12.57;;;6.03;;
58242;SDS011;50118;53.232;8.252;2023-11-22T01:00:09;13.40;;;6.13;;
58242;SDS011;50118;53.232;8.252;2023-11-22T01:02:36;10.45;;;4.93;;
58242;SDS011;50118;53.232;8.252;2023-11-22T01:05:05;10.02;;;5.05;;
58242;SDS011;50118;53.232;8.252;2023-11-22T01:07:36;10.52;;;5.32;;
58242;SDS011;50118;53.232;8.252;2023-11-22T01:10:02;11.52;;;5.43;;
58242;SDS011;50118;53.232;8.252;2023-11-22T01:12:27;12.38;;;5.60;;
58242;SDS011;50118;53.232;8.252;2023-11-22T01:14:52;11.63;;;5.25;;
58242;SDS011;50118;53.232;8.252;2023-11-22T01:17:18;11.18;;;5.22;;
58242;SDS011;50118;53.232;8.252;2023-11-22T01:19:43;13.23;;;5.78;;
58242;SDS011;50118;53.232;8.252;2023-11-22T01:22:08;12.07;;;5.60;;
58242;SDS011;50118;53.232;8.252;2023-11-22T01:24:34;13.32;;;6.15;;
58242;SDS011;50118;53.232;8.252;2023-11-22T01:26:59;13.43;;;5.47;;
58242;SDS011;50118;53.232;8.252;2023-11-22T01:29:25;13.55;;;5.72;;
58242;SDS011;50118;53.232;8.252;2023-11-22T01:31:51;11.13;;;5.70;;
58242;SDS011;50118;53.232;8.252;2023-11-22T01:34:17;10.63;;;5.45;;
58242;SDS011;50118;53.232;8.252;2023-11-22T01:36:42;11.02;;;5.07;;
58242;SDS011;50118;53.232;8.252;2023-11-22T01:39:11;12.80;;;5.65;;
58242;SDS011;50118;53.232;8.252;2023-11-22T01:41:40;13.68;;;5.82;;
58242;SDS011;50118;53.232;8.252;2023-11-22T01:44:07;11.95;;;5.75;;
58242;SDS011;50118;53.232;8.252;2023-11-22T01:46:33;10.93;;;5.50;;
58242;SDS011;50118;53.232;8.252;2023-11-22T01:48:59;12.05;;;5.97;;
58242;SDS011;50118;53.232;8.252;2023-11-22T01:51:25;11.15;;;5.80;;
58242;SDS011;50118;53.232;8.252;2023-11-22T01:53:52;15.65;;;5.75;;
58242;SDS011;50118;53.232;8.252;2023-11-22T01:56:19;10.18;;;5.22;;
58242;SDS011;50118;53.232;8.252;2023-11-22T01:58:46;14.13;;;6.25;;
58242;SDS011;50118;53.232;8.252;2023-11-22T02:01:12;18.52;;;8.23;;
58242;SDS011;50118;53.232;8.252;2023-11-22T02:03:38;27.58;;;10.40;;
58242;SDS011;50118;53.232;8.252;2023-11-22T02:06:04;29.73;;;10.68;;
58242;SDS011;50118;53.232;8.252;2023-11-22T02:08:30;19.27;;;7.35;;
58242;SDS011;50118;53.232;8.252;2023-11-22T02:10:59;19.48;;;6.95;;
58242;SDS011;50118;53.232;8.252;2023-11-22T02:13:25;20.35;;;7.88;;
58242;SDS011;50118;53.232;8.252;2023-11-22T02:15:51;20.77;;;7.90;;
58242;SDS011;50118;53.232;8.252;2023-11-22T02:18:21;16.73;;;6.78;;
58242;SDS011;50118;53.232;8.252;2023-11-22T02:20:50;18.80;;;6.80;;
58242;SDS011;50118;53.232;8.252;2023-11-22T02:23:15;17.35;;;7.57;;
58242;SDS011;50118;53.232;8.252;2023-11-22T02:25:42;21.50;;;8.10;;
58242;SDS011;50118;53.232;8.252;2023-11-22T02:28:07;18.55;;;7.75;;
58242;SDS011;50118;53.232;8.252;2023-11-22T02:30:35;17.98;;;7.63;;
58242;SDS011;50118;53.232;8.252;2023-11-22T02:33:01;24.13;;;9.27;;
58242;SDS011;50118;53.232;8.252;2023-11-22T02:35:26;21.80;;;8.05;;
58242;SDS011;50118;53.232;8.252;2023-11-22T02:37:52;21.50;;;8.70;;
58242;SDS011;50118;53.232;8.252;2023-11-22T02:40:21;19.98;;;7.45;;
58242;SDS011;50118;53.232;8.252;2023-11-22T02:45:15;17.63;;;6.95;;
58242;SDS011;50118;53.232;8.252;2023-11-22T02:47:42;18.25;;;7.22;;
58242;SDS011;50118;53.232;8.252;2023-11-22T02:50:09;18.00;;;6.88;;
58242;SDS011;50118;53.232;8.252;2023-11-22T02:52:36;18.45;;;7.50;;
58242;SDS011;50118;53.232;8.252;2023-11-22T02:55:02;14.43;;;6.45;;
58242;SDS011;50118;53.232;8.252;2023-11-22T02:57:30;16.85;;;6.68;;
58242;SDS011;50118;53.232;8.252;2023-11-22T02:59:56;13.18;;;6.07;;
58242;SDS011;50118;53.232;8.252;2023-11-22T03:02:22;19.52;;;6.60;;
58242;SDS011;50118;53.232;8.252;2023-11-22T03:04:47;15.40;;;6.70;;
58242;SDS011;50118;53.232;8.252;2023-11-22T03:07:13;16.23;;;6.82;;
58242;SDS011;50118;53.232;8.252;2023-11-22T03:09:38;21.17;;;7.57;;
58242;SDS011;50118;53.232;8.252;2023-11-22T03:12:05;14.90;;;6.90;;
58242;SDS011;50118;53.232;8.252;2023-11-22T03:14:31;15.57;;;6.28;;
58242;SDS011;50118;53.232;8.252;2023-11-22T03:16:57;14.80;;;6.30;;
58242;SDS011;50118;53.232;8.252;2023-11-22T03:19:22;14.70;;;6.13;;
58242;SDS011;50118;53.232;8.252;2023-11-22T03:21:49;15.75;;;7.07;;
58242;SDS011;50118;53.232;8.252;2023-11-22T03:24:14;14.45;;;6.72;;
58242;SDS011;50118;53.232;8.252;2023-11-22T03:26:40;14.57;;;6.75;;
58242;SDS011;50118;53.232;8.252;2023-11-22T03:29:06;18.45;;;6.75;;
58242;SDS011;50118;53.232;8.252;2023-11-22T03:31:32;15.30;;;7.20;;
58242;SDS011;50118;53.232;8.252;2023-11-22T03:33:57;15.63;;;7.28;;
58242;SDS011;50118;53.232;8.252;2023-11-22T03:36:23;14.85;;;6.93;;
58242;SDS011;50118;53.232;8.252;2023-11-22T03:38:49;15.10;;;6.75;;
58242;SDS011;50118;53.232;8.252;2023-11-22T03:41:15;14.55;;;6.63;;
58242;SDS011;50118;53.232;8.252;2023-11-22T03:43:42;14.75;;;6.20;;
58242;SDS011;50118;53.232;8.252;2023-11-22T03:46:08;14.93;;;6.78;;
58242;SDS011;50118;53.232;8.252;2023-11-22T03:48:34;14.98;;;7.03;;
58242;SDS011;50118;53.232;8.252;2023-11-22T03:51:00;12.43;;;5.70;;
58242;SDS011;50118;53.232;8.252;2023-11-22T03:53:25;13.48;;;6.60;;
58242;SDS011;50118;53.232;8.252;2023-11-22T03:55:51;16.73;;;7.18;;
58242;SDS011;50118;53.232;8.252;2023-11-22T03:58:17;19.77;;;7.53;;
58242;SDS011;50118;53.232;8.252;2023-11-22T04:00:43;15.40;;;7.00;;
58242;SDS011;50118;53.232;8.252;2023-11-22T04:03:08;14.98;;;6.15;;
58242;SDS011;50118;53.232;8.252;2023-11-22T04:05:34;17.83;;;7.85;;
58242;SDS011;50118;53.232;8.252;2023-11-22T04:07:59;17.65;;;6.68;;
58242;SDS011;50118;53.232;8.252;2023-11-22T04:10:24;16.00;;;6.72;;
58242;SDS011;50118;53.232;8.252;2023-11-22T04:12:50;15.23;;;6.75;;
58242;SDS011;50118;53.232;8.252;2023-11-22T04:15:15;14.98;;;7.22;;
58242;SDS011;50118;53.232;8.252;2023-11-22T04:17:41;16.05;;;7.07;;
58242;SDS011;50118;53.232;8.252;2023-11-22T04:20:07;18.63;;;7.53;;
58242;SDS011;50118;53.232;8.252;2023-11-22T04:22:43;15.20;;;6.68;;
58242;SDS011;50118;53.232;8.252;2023-11-22T04:25:12;18.23;;;6.60;;
58242;SDS011;50118;53.232;8.252;2023-11-22T04:27:38;14.63;;;6.90;;
58242;SDS011;50118;53.232;8.252;2023-11-22T04:30:07;12.43;;;5.95;;
58242;SDS011;50118;53.232;8.252;2023-11-22T04:32:38;14.80;;;6.55;;
58242;SDS011;50118;53.232;8.252;2023-11-22T04:35:03;17.00;;;7.65;;
58242;SDS011;50118;53.232;8.252;2023-11-22T04:37:29;13.07;;;7.05;;
58242;SDS011;50118;53.232;8.252;2023-11-22T04:39:57;15.18;;;7.68;;
58242;SDS011;50118;53.232;8.252;2023-11-22T04:42:23;16.40;;;6.93;;
58242;SDS011;50118;53.232;8.252;2023-11-22T04:44:48;14.45;;;5.72;;
58242;SDS011;50118;53.232;8.252;2023-11-22T04:47:14;15.32;;;7.20;;
58242;SDS011;50118;53.232;8.252;2023-11-22T04:49:39;14.93;;;6.75;;
58242;SDS011;50118;53.232;8.252;2023-11-22T04:52:04;13.38;;;6.75;;
58242;SDS011;50118;53.232;8.252;2023-11-22T04:54:30;17.63;;;7.03;;
58242;SDS011;50118;53.232;8.252;2023-11-22T04:56:56;15.75;;;6.88;;
58242;SDS011;50118;53.232;8.252;2023-11-22T04:59:22;14.23;;;6.28;;
58242;SDS011;50118;53.232;8.252;2023-11-22T05:01:47;13.23;;;5.97;;
58242;SDS011;50118;53.232;8.252;2023-11-22T05:04:14;11.63;;;5.78;;
58242;SDS011;50118;53.232;8.252;2023-11-22T05:06:39;14.80;;;6.05;;
58242;SDS011;50118;53.232;8.252;2023-11-22T05:09:05;15.20;;;6.63;;
58242;SDS011;50118;53.232;8.252;2023-11-22T05:11:30;16.98;;;6.82;;
58242;SDS011;50118;53.232;8.252;2023-11-22T05:13:57;12.77;;;6.25;;
58242;SDS011;50118;53.232;8.252;2023-11-22T05:16:22;14.95;;;7.07;;
58242;SDS011;50118;53.232;8.252;2023-11-22T05:18:48;13.10;;;5.95;;
58242;SDS011;50118;53.232;8.252;2023-11-22T05:21:15;14.40;;;5.95;;
58242;SDS011;50118;53.232;8.252;2023-11-22T05:23:40;13.02;;;6.25;;
58242;SDS011;50118;53.232;8.252;2023-11-22T05:26:06;13.75;;;6.15;;
58242;SDS011;50118;53.232;8.252;2023-11-22T05:28:31;15.38;;;6.75;;
58242;SDS011;50118;53.232;8.252;2023-11-22T05:30:57;16.65;;;7.03;;
58242;SDS011;50118;53.232;8.252;2023-11-22T05:33:22;14.10;;;6.72;;
58242;SDS011;50118;53.232;8.252;2023-11-22T05:35:49;14.88;;;6.38;;
58242;SDS011;50118;53.232;8.252;2023-11-22T05:38:14;14.43;;;5.97;;
58242;SDS011;50118;53.232;8.252;2023-11-22T05:40:40;13.07;;;6.47;;
58242;SDS011;50118;53.232;8.252;2023-11-22T05:43:06;12.73;;;6.03;;
58242;SDS011;50118;53.232;8.252;2023-11-22T05:45:33;19.77;;;7.43;;
58242;SDS011;50118;53.232;8.252;2023-11-22T05:47:59;13.93;;;6.60;;
58242;SDS011;50118;53.232;8.252;2023-11-22T05:50:25;17.45;;;6.85;;
58242;SDS011;50118;53.232;8.252;2023-11-22T05:52:50;18.55;;;7.40;;
58242;SDS011;50118;53.232;8.252;2023-11-22T05:55:16;33.53;;;14.32;;
58242;SDS011;50118;53.232;8.252;2023-11-22T05:57:43;34.03;;;14.40;;
58242;SDS011;50118;53.232;8.252;2023-11-22T06:00:08;24.40;;;11.05;;
58242;SDS011;50118;53.232;8.252;2023-11-22T06:02:34;19.38;;;8.30;;
58242;SDS011;50118;53.232;8.252;2023-11-22T06:05:01;17.25;;;8.02;;
58242;SDS011;50118;53.232;8.252;2023-11-22T06:07:27;17.70;;;7.13;;
58242;SDS011;50118;53.232;8.252;2023-11-22T06:09:52;16.95;;;7.75;;
58242;SDS011;50118;53.232;8.252;2023-11-22T06:12:18;16.55;;;7.45;;
58242;SDS011;50118;53.232;8.252;2023-11-22T06:14:45;17.50;;;7.90;;
58242;SDS011;50118;53.232;8.252;2023-11-22T06:17:11;14.40;;;7.20;;
58242;SDS011;50118;53.232;8.252;2023-11-22T06:19:37;14.98;;;6.93;;
58242;SDS011;50118;53.232;8.252;2023-11-22T06:22:02;17.42;;;6.90;;
58242;SDS011;50118;53.232;8.252;2023-11-22T06:24:28;18.42;;;8.10;;
58242;SDS011;50118;53.232;8.252;2023-11-22T06:26:53;20.30;;;7.97;;
58242;SDS011;50118;53.232;8.252;2023-11-22T06:29:19;21.23;;;8.77;;
58242;SDS011;50118;53.232;8.252;2023-11-22T06:31:45;19.45;;;8.55;;
58242;SDS011;50118;53.232;8.252;2023-11-22T06:34:11;24.05;;;10.50;;
58242;SDS011;50118;53.232;8.252;2023-11-22T06:36:37;21.88;;;9.98;;
58242;SDS011;50118;53.232;8.252;2023-11-22T06:39:03;24.75;;;10.02;;
58242;SDS011;50118;53.232;8.252;2023-11-22T06:41:29;23.63;;;11.50;;
58242;SDS011;50118;53.232;8.252;2023-11-22T06:43:55;23.00;;;10.98;;
58242;SDS011;50118;53.232;8.252;2023-11-22T06:46:20;22.67;;;10.00;;
58242;SDS011;50118;53.232;8.252;2023-11-22T06:48:47;21.50;;;10.25;;
58242;SDS011;50118;53.232;8.252;2023-11-22T06:51:14;21.30;;;9.80;;
58242;SDS011;50118;53.232;8.252;2023-11-22T06:53:40;24.13;;;10.90;;
58242;SDS011;50118;53.232;8.252;2023-11-22T06:56:05;24.38;;;10.38;;
58242;SDS011;50118;53.232;8.252;2023-11-22T06:58:31;24.52;;;11.18;;
58242;SDS011;50118;53.232;8.252;2023-11-22T07:00:56;25.63;;;9.68;;
58242;SDS011;50118;53.232;8.252;2023-11-22T07:03:22;20.10;;;9.55;;
58242;SDS011;50118;53.232;8.252;2023-11-22T07:05:47;20.40;;;10.20;;
58242;SDS011;50118;53.232;8.252;2023-11-22T07:08:13;24.52;;;10.68;;
58242;SDS011;50118;53.232;8.252;2023-11-22T07:10:41;21.63;;;10.15;;
58242;SDS011;50118;53.232;8.252;2023-11-22T07:13:07;21.77;;;10.38;;
58242;SDS011;50118;53.232;8.252;2023-11-22T07:15:32;22.35;;;10.00;;
58242;SDS011;50118;53.232;8.252;2023-11-22T07:17:58;20.13;;;9.57;;
58242;SDS011;50118;53.232;8.252;2023-11-22T07:20:23;19.15;;;9.13;;
58242;SDS011;50118;53.232;8.252;2023-11-22T07:22:49;21.98;;;10.43;;
58242;SDS011;50118;53.232;8.252;2023-11-22T07:25:20;22.63;;;10.95;;
58242;SDS011;50118;53.232;8.252;2023-11-22T07:27:50;19.90;;;10.75;;
58242;SDS011;50118;53.232;8.252;2023-11-22T07:30:16;22.70;;;10.88;;
58242;SDS011;50118;53.232;8.252;2023-11-22T07:32:44;22.00;;;10.90;;
58242;SDS011;50118;53.232;8.252;2023-11-22T07:35:10;25.75;;;12.98;;
58242;SDS011;50118;53.232;8.252;2023-11-22T07:37:37;20.42;;;10.63;;
58242;SDS011;50118;53.232;8.252;2023-11-22T07:40:06;22.85;;;10.48;;
58242;SDS011;50118;53.232;8.252;2023-11-22T07:42:33;27.80;;;12.35;;
58242;SDS011;50118;53.232;8.252;2023-11-22T07:44:58;23.83;;;11.63;;
58242;SDS011;50118;53.232;8.252;2023-11-22T07:47:24;21.98;;;10.52;;
58242;SDS011;50118;53.232;8.252;2023-11-22T07:49:50;21.10;;;10.38;;
58242;SDS011;50118;53.232;8.252;2023-11-22T07:52:16;21.45;;;10.70;;
58242;SDS011;50118;53.232;8.252;2023-11-22T07:54:42;18.70;;;10.07;;
58242;SDS011;50118;53.232;8.252;2023-11-22T07:57:07;20.17;;;10.57;;
58242;SDS011;50118;53.232;8.252;2023-11-22T07:59:33;18.95;;;9.98;;
58242;SDS011;50118;53.232;8.252;2023-11-22T08:01:58;21.40;;;9.88;;
58242;SDS011;50118;53.232;8.252;2023-11-22T08:04:26;17.25;;;9.30;;
58242;SDS011;50118;53.232;8.252;2023-11-22T08:06:53;19.83;;;10.20;;
58242;SDS011;50118;53.232;8.252;2023-11-22T08:09:22;20.33;;;9.80;;
58242;SDS011;50118;53.232;8.252;2023-11-22T08:11:48;18.98;;;9.85;;
58242;SDS011;50118;53.232;8.252;2023-11-22T08:14:13;21.30;;;11.07;;
58242;SDS011;50118;53.232;8.252;2023-11-22T08:16:40;22.88;;;11.20;;
58242;SDS011;50118;53.232;8.252;2023-11-22T08:19:07;20.70;;;9.30;;
58242;SDS011;50118;53.232;8.252;2023-11-22T08:21:33;21.90;;;10.82;;
58242;SDS011;50118;53.232;8.252;2023-11-22T08:23:59;16.88;;;9.57;;
58242;SDS011;50118;53.232;8.252;2023-11-22T08:26:25;18.70;;;8.57;;
58242;SDS011;50118;53.232;8.252;2023-11-22T08:28:53;17.42;;;9.15;;
58242;SDS011;50118;53.232;8.252;2023-11-22T08:31:19;17.67;;;10.20;;
58242;SDS011;50118;53.232;8.252;2023-11-22T08:33:45;18.50;;;9.65;;
58242;SDS011;50118;53.232;8.252;2023-11-22T08:36:10;20.67;;;10.10;;
58242;SDS011;50118;53.232;8.252;2023-11-22T08:38:36;19.77;;;9.70;;
58242;SDS011;50118;53.232;8.252;2023-11-22T08:41:02;21.92;;;10.93;;
58242;SDS011;50118;53.232;8.252;2023-11-22T08:43:30;19.35;;;10.27;;
58242;SDS011;50118;53.232;8.252;2023-11-22T08:45:57;19.67;;;10.27;;
58242;SDS011;50118;53.232;8.252;2023-11-22T08:48:23;22.05;;;10.40;;
58242;SDS011;50118;53.232;8.252;2023-11-22T08:50:48;21.38;;;10.73;;
58242;SDS011;50118;53.232;8.252;2023-11-22T08:53:14;20.63;;;10.38;;
58242;SDS011;50118;53.232;8.252;2023-11-22T08:55:40;21.13;;;10.70;;
58242;SDS011;50118;53.232;8.252;2023-11-22T08:58:07;20.08;;;10.65;;
58242;SDS011;50118;53.232;8.252;2023-11-22T09:00:33;19.10;;;9.90;;
58242;SDS011;50118;53.232;8.252;2023-11-22T09:02:58;19.95;;;10.68;;
58242;SDS011;50118;53.232;8.252;2023-11-22T09:05:24;18.75;;;10.25;;
58242;SDS011;50118;53.232;8.252;2023-11-22T09:07:49;21.35;;;10.10;;
58242;SDS011;50118;53.232;8.252;2023-11-22T09:10:16;18.42;;;9.68;;
58242;SDS011;50118;53.232;8.252;2023-11-22T09:12:43;17.52;;;9.57;;
58242;SDS011;50118;53.232;8.252;2023-11-22T09:15:12;18.63;;;9.77;;
58242;SDS011;50118;53.232;8.252;2023-11-22T09:17:41;16.30;;;9.05;;
58242;SDS011;50118;53.232;8.252;2023-11-22T09:20:14;20.73;;;9.48;;
58242;SDS011;50118;53.232;8.252;2023-11-22T09:22:46;20.25;;;10.60;;
58242;SDS011;50118;53.232;8.252;2023-11-22T09:25:14;16.95;;;9.52;;
58242;SDS011;50118;53.232;8.252;2023-11-22T09:27:42;16.13;;;9.13;;
58242;SDS011;50118;53.232;8.252;2023-11-22T09:30:12;14.68;;;8.77;;
58242;SDS011;50118;53.232;8.252;2023-11-22T09:32:44;15.27;;;8.85;;
58242;SDS011;50118;53.232;8.252;2023-11-22T09:35:11;15.10;;;7.95;;
58242;SDS011;50118;53.232;8.252;2023-11-22T09:37:38;16.85;;;9.07;;
58242;SDS011;50118;53.232;8.252;2023-11-22T09:40:05;16.10;;;8.77;;
58242;SDS011;50118;53.232;8.252;2023-11-22T09:42:34;14.02;;;8.52;;
58242;SDS011;50118;53.232;8.252;2023-11-22T09:44:59;14.38;;;8.43;;
58242;SDS011;50118;53.232;8.252;2023-11-22T09:47:25;15.20;;;8.10;;
58242;SDS011;50118;53.232;8.252;2023-11-22T09:49:53;16.10;;;8.85;;
58242;SDS011;50118;53.232;8.252;2023-11-22T09:52:22;15.02;;;8.38;;
58242;SDS011;50118;53.232;8.252;2023-11-22T09:54:50;13.70;;;7.65;;
58242;SDS011;50118;53.232;8.252;2023-11-22T09:57:17;14.50;;;8.15;;
58242;SDS011;50118;53.232;8.252;2023-11-22T09:59:44;15.40;;;9.02;;
58242;SDS011;50118;53.232;8.252;2023-11-22T10:02:14;13.68;;;7.97;;
58242;SDS011;50118;53.232;8.252;2023-11-22T10:04:40;13.20;;;7.55;;
58242;SDS011;50118;53.232;8.252;2023-11-22T10:07:06;16.10;;;8.27;;
58242;SDS011;50118;53.232;8.252;2023-11-22T10:09:35;12.88;;;7.03;;
58242;SDS011;50118;53.232;8.252;2023-11-22T10:12:02;13.73;;;7.65;;
58242;SDS011;50118;53.232;8.252;2023-11-22T10:14:29;13.07;;;7.38;;
58242;SDS011;50118;53.232;8.252;2023-11-22T10:17:01;11.48;;;6.88;;
58242;SDS011;50118;53.232;8.252;2023-11-22T10:19:27;12.00;;;7.60;;
58242;SDS011;50118;53.232;8.252;2023-11-22T10:22:02;11.52;;;6.95;;
58242;SDS011;50118;53.232;8.252;2023-11-22T10:24:32;12.38;;;6.70;;
58242;SDS011;50118;53.232;8.252;2023-11-22T10:27:01;10.25;;;6.40;;
58242;SDS011;50118;53.232;8.252;2023-11-22T10:29:28;11.68;;;6.82;;
58242;SDS011;50118;53.232;8.252;2023-11-22T10:31:54;11.52;;;6.68;;
58242;SDS011;50118;53.232;8.252;2023-11-22T10:34:20;11.52;;;7.18;;
58242;SDS011;50118;53.232;8.252;2023-11-22T10:36:47;10.00;;;6.15;;
58242;SDS011;50118;53.232;8.252;2023-11-22T10:39:12;10.68;;;5.93;;
58242;SDS011;50118;53.232;8.252;2023-11-22T10:41:41;10.73;;;5.68;;
58242;SDS011;50118;53.232;8.252;2023-11-22T10:44:08;9.45;;;5.82;;
58242;SDS011;50118;53.232;8.252;2023-11-22T10:46:34;8.75;;;5.43;;
58242;SDS011;50118;53.232;8.252;2023-11-22T10:49:00;9.40;;;5.45;;
58242;SDS011;50118;53.232;8.252;2023-11-22T10:51:27;9.23;;;5.40;;
58242;SDS011;50118;53.232;8.252;2023-11-22T10:53:56;8.85;;;5.13;;
58242;SDS011;50118;53.232;8.252;2023-11-22T10:56:23;8.93;;;5.03;;
58242;SDS011;50118;53.232;8.252;2023-11-22T10:58:51;8.02;;;4.40;;
58242;SDS011;50118;53.232;8.252;2023-11-22T11:01:20;7.72;;;4.32;;
58242;SDS011;50118;53.232;8.252;2023-11-22T11:04:03;6.53;;;4.38;;
58242;SDS011;50118;53.232;8.252;2023-11-22T11:06:35;8.23;;;3.95;;
58242;SDS011;50118;53.232;8.252;2023-11-22T11:09:02;7.07;;;4.45;;
58242;SDS011;50118;53.232;8.252;2023-11-22T11:13:59;7.43;;;4.20;;
58242;SDS011;50118;53.232;8.252;2023-11-22T11:16:27;7.25;;;4.22;;
58242;SDS011;50118;53.232;8.252;2023-11-22T11:18:56;8.20;;;4.25;;
58242;SDS011;50118;53.232;8.252;2023-11-22T11:21:22;8.43;;;4.70;;
58242;SDS011;50118;53.232;8.252;2023-11-22T11:23:51;6.78;;;4.57;;
58242;SDS011;50118;53.232;8.252;2023-11-22T11:26:18;6.43;;;4.20;;
58242;SDS011;50118;53.232;8.252;2023-11-22T11:28:48;7.32;;;4.22;;
58242;SDS011;50118;53.232;8.252;2023-11-22T11:31:16;6.80;;;4.45;;
58242;SDS011;50118;53.232;8.252;2023-11-22T11:36:26;7.75;;;4.60;;
58242;SDS011;50118;53.232;8.252;2023-11-22T11:38:56;6.43;;;3.90;;
58242;SDS011;50118;53.232;8.252;2023-11-22T11:41:26;6.80;;;4.00;;
58242;SDS011;50118;53.232;8.252;2023-11-22T11:43:57;7.57;;;4.00;;
58242;SDS011;50118;53.232;8.252;2023-11-22T11:46:23;6.72;;;4.15;;
58242;SDS011;50118;53.232;8.252;2023-11-22T11:48:52;6.25;;;3.90;;
58242;SDS011;50118;53.232;8.252;2023-11-22T11:51:28;5.65;;;3.75;;
58242;SDS011;50118;53.232;8.252;2023-11-22T11:53:54;7.10;;;3.97;;
58242;SDS011;50118;53.232;8.252;2023-11-22T11:56:20;6.65;;;3.65;;
58242;SDS011;50118;53.232;8.252;2023-11-22T11:58:48;5.03;;;3.40;;
58242;SDS011;50118;53.232;8.252;2023-11-22T12:01:14;6.00;;;4.07;;
58242;SDS011;50118;53.232;8.252;2023-11-22T12:03:48;5.70;;;3.95;;
58242;SDS011;50118;53.232;8.252;2023-11-22T12:06:17;4.95;;;3.33;;
58242;SDS011;50118;53.232;8.252;2023-11-22T12:08:44;4.65;;;3.13;;
58242;SDS011;50118;53.232;8.252;2023-11-22T12:11:12;5.13;;;3.35;;
58242;SDS011;50118;53.232;8.252;2023-11-22T12:13:37;5.72;;;3.65;;
58242;SDS011;50118;53.232;8.252;2023-11-22T12:16:04;5.07;;;3.25;;
58242;SDS011;50118;53.232;8.252;2023-11-22T12:18:39;5.05;;;2.95;;
58242;SDS011;50118;53.232;8.252;2023-11-22T12:21:08;5.65;;;3.10;;
58242;SDS011;50118;53.232;8.252;2023-11-22T12:23:35;5.28;;;3.20;;
58242;SDS011;50118;53.232;8.252;2023-11-22T12:26:01;5.50;;;3.50;;
58242;SDS011;50118;53.232;8.252;2023-11-22T12:28:27;6.25;;;2.90;;
58242;SDS011;50118;53.232;8.252;2023-11-22T12:30:54;5.05;;;2.88;;
58242;SDS011;50118;53.232;8.252;2023-11-22T12:33:19;5.07;;;2.83;;
58242;SDS011;50118;53.232;8.252;2023-11-22T12:35:45;4.40;;;2.70;;
58242;SDS011;50118;53.232;8.252;2023-11-22T12:38:11;4.68;;;2.90;;
58242;SDS011;50118;53.232;8.252;2023-11-22T12:40:37;4.55;;;2.50;;
58242;SDS011;50118;53.232;8.252;2023-11-22T12:43:03;5.35;;;2.97;;
58242;SDS011;50118;53.232;8.252;2023-11-22T12:45:29;5.45;;;3.20;;
58242;SDS011;50118;53.232;8.252;2023-11-22T12:47:55;4.68;;;3.10;;
58242;SDS011;50118;53.232;8.252;2023-11-22T12:50:30;6.13;;;3.67;;
58242;SDS011;50118;53.232;8.252;2023-11-22T12:52:56;5.78;;;3.90;;
58242;SDS011;50118;53.232;8.252;2023-11-22T12:55:23;4.53;;;2.80;;
58242;SDS011;50118;53.232;8.252;2023-11-22T12:57:58;5.28;;;2.60;;
58242;SDS011;50118;53.232;8.252;2023-11-22T13:00:28;5.45;;;3.03;;
58242;SDS011;50118;53.232;8.252;2023-11-22T13:02:58;4.28;;;2.60;;
58242;SDS011;50118;53.232;8.252;2023-11-22T13:05:25;5.22;;;2.70;;
58242;SDS011;50118;53.232;8.252;2023-11-22T13:07:51;6.25;;;3.28;;
58242;SDS011;50118;53.232;8.252;2023-11-22T13:10:17;6.20;;;2.95;;
58242;SDS011;50118;53.232;8.252;2023-11-22T13:12:50;31.13;;;8.63;;
58242;SDS011;50118;53.232;8.252;2023-11-22T13:15:17;4.50;;;2.78;;
58242;SDS011;50118;53.232;8.252;2023-11-22T13:17:42;5.25;;;2.50;;
58242;SDS011;50118;53.232;8.252;2023-11-22T13:20:08;5.88;;;2.72;;
58242;SDS011;50118;53.232;8.252;2023-11-22T13:22:40;4.55;;;2.50;;
58242;SDS011;50118;53.232;8.252;2023-11-22T13:25:07;5.05;;;2.78;;
58242;SDS011;50118;53.232;8.252;2023-11-22T13:27:36;4.55;;;2.75;;
58242;SDS011;50118;53.232;8.252;2023-11-22T13:30:02;5.35;;;2.92;;
58242;SDS011;50118;53.232;8.252;2023-11-22T13:32:29;4.75;;;2.50;;
58242;SDS011;50118;53.232;8.252;2023-11-22T13:34:55;5.35;;;2.80;;
58242;SDS011;50118;53.232;8.252;2023-11-22T13:37:24;6.63;;;3.33;;
58242;SDS011;50118;53.232;8.252;2023-11-22T13:39:50;4.85;;;2.85;;
58242;SDS011;50118;53.232;8.252;2023-11-22T13:42:16;4.63;;;2.70;;
58242;SDS011;50118;53.232;8.252;2023-11-22T13:44:42;6.53;;;3.05;;
58242;SDS011;50118;53.232;8.252;2023-11-22T13:47:09;5.05;;;2.88;;
58242;SDS011;50118;53.232;8.252;2023-11-22T13:49:35;3.67;;;2.53;;
58242;SDS011;50118;53.232;8.252;2023-11-22T13:52:01;5.53;;;2.88;;
58242;SDS011;50118;53.232;8.252;2023-11-22T13:54:26;5.53;;;3.22;;
58242;SDS011;50118;53.232;8.252;2023-11-22T13:56:52;5.22;;;3.00;;
58242;SDS011;50118;53.232;8.252;2023-11-22T13:59:18;5.18;;;2.72;;
58242;SDS011;50118;53.232;8.252;2023-11-22T14:01:44;4.97;;;2.85;;
58242;SDS011;50118;53.232;8.252;2023-11-22T14:04:10;5.40;;;3.00;;
58242;SDS011;50118;53.232;8.252;2023-11-22T14:06:36;5.53;;;3.10;;
58242;SDS011;50118;53.232;8.252;2023-11-22T14:09:01;5.68;;;3.20;;
58242;SDS011;50118;53.232;8.252;2023-11-22T14:11:26;4.78;;;2.95;;
58242;SDS011;50118;53.232;8.252;2023-11-22T14:13:52;5.50;;;2.90;;
58242;SDS011;50118;53.232;8.252;2023-11-22T14:16:17;5.63;;;2.72;;
58242;SDS011;50118;53.232;8.252;2023-11-22T14:18:43;6.30;;;2.88;;
58242;SDS011;50118;53.232;8.252;2023-11-22T14:21:10;5.07;;;2.90;;
58242;SDS011;50118;53.232;8.252;2023-11-22T14:23:35;5.03;;;2.85;;
58242;SDS011;50118;53.232;8.252;2023-11-22T14:26:01;5.88;;;3.20;;
58242;SDS011;50118;53.232;8.252;2023-11-22T14:28:27;4.50;;;2.88;;
58242;SDS011;50118;53.232;8.252;2023-11-22T14:30:54;6.55;;;2.90;;
58242;SDS011;50118;53.232;8.252;2023-11-22T14:33:20;5.60;;;3.10;;
58242;SDS011;50118;53.232;8.252;2023-11-22T14:35:46;5.32;;;3.35;;
58242;SDS011;50118;53.232;8.252;2023-11-22T14:38:11;6.40;;;3.22;;
58242;SDS011;50118;53.232;8.252;2023-11-22T14:40:38;5.18;;;3.28;;